createdAt,value
2017-10-10T00:00:16.992Z,11.37
2017-10-10T00:00:57.574Z,11.3
2017-10-10T00:01:38.167Z,11.36
2017-10-10T00:02:18.751Z,11.33
2017-10-10T00:02:59.340Z,11.47
2017-10-10T00:03:39.921Z,11.44
2017-10-10T00:04:20.497Z,11.5
2017-10-10T00:05:01.088Z,11.51
2017-10-10T00:05:41.684Z,11.35
2017-10-10T00:06:22.250Z,11.37
2017-10-10T00:07:02.828Z,11.51
2017-10-10T00:07:43.393Z,11.45
2017-10-10T00:08:23.986Z,11.4
2017-10-10T00:09:04.550Z,11.33
2017-10-10T00:09:45.131Z,11.41
2017-10-10T00:10:25.704Z,11.45
2017-10-10T00:11:06.309Z,11.5
2017-10-10T00:11:46.902Z,11.44
2017-10-10T00:12:27.506Z,11.45
2017-10-10T00:13:08.125Z,11.51
2017-10-10T00:13:48.764Z,11.32
2017-10-10T00:14:29.369Z,11.44
2017-10-10T00:15:09.967Z,11.37
2017-10-10T00:15:50.550Z,11.35
2017-10-10T00:16:31.177Z,11.4
2017-10-10T00:17:11.815Z,11.51
2017-10-10T00:17:52.355Z,11.48
2017-10-10T00:18:32.931Z,11.51
2017-10-10T00:19:13.549Z,11.47
2017-10-10T00:19:54.132Z,11.45
2017-10-10T00:20:34.739Z,11.48
2017-10-10T00:21:15.363Z,11.52
2017-10-10T00:21:55.984Z,11.47
2017-10-10T00:22:36.607Z,11.47
2017-10-10T00:23:17.210Z,11.5
2017-10-10T00:23:57.807Z,11.48
2017-10-10T00:24:38.407Z,11.51
2017-10-10T00:25:18.982Z,11.44
2017-10-10T00:25:59.593Z,11.45
2017-10-10T00:26:40.212Z,11.47
2017-10-10T00:27:20.818Z,11.47
2017-10-10T00:28:01.419Z,11.47
2017-10-10T00:28:42.044Z,11.48
2017-10-10T00:29:22.616Z,11.51
2017-10-10T00:30:03.206Z,11.35
2017-10-10T00:30:43.821Z,11.33
2017-10-10T00:31:24.408Z,11.45
2017-10-10T00:32:05.007Z,11.47
2017-10-10T00:32:45.611Z,11.45
2017-10-10T00:33:26.210Z,11.51
2017-10-10T00:34:06.780Z,11.51
2017-10-10T00:34:47.389Z,11.47
2017-10-10T00:35:27.964Z,11.51
2017-10-10T00:36:08.538Z,11.48
2017-10-10T00:36:49.168Z,11.45
2017-10-10T00:37:29.743Z,11.47
2017-10-10T00:38:10.326Z,11.47
2017-10-10T00:38:50.903Z,11.51
2017-10-10T00:39:31.573Z,11.48
2017-10-10T00:40:12.182Z,11.47
2017-10-10T00:40:52.777Z,11.37
2017-10-10T00:41:33.381Z,11.54
2017-10-10T00:42:13.989Z,11.45
2017-10-10T00:42:54.554Z,11.47
2017-10-10T00:43:35.140Z,11.55
2017-10-10T00:44:15.754Z,11.48
2017-10-10T00:44:56.319Z,11.45
2017-10-10T00:45:36.923Z,11.51
2017-10-10T00:46:17.496Z,11.48
2017-10-10T00:46:58.138Z,11.48
2017-10-10T00:47:38.772Z,11.51
2017-10-10T00:48:19.386Z,11.51
2017-10-10T00:48:59.972Z,11.51
2017-10-10T00:49:40.571Z,11.52
2017-10-10T00:50:21.161Z,11.54
2017-10-10T00:51:01.757Z,11.6
2017-10-10T00:51:42.326Z,11.55
2017-10-10T00:52:22.895Z,11.5
2017-10-10T00:53:03.482Z,11.5
2017-10-10T00:53:44.088Z,11.51
2017-10-10T00:54:24.646Z,11.51
2017-10-10T00:55:05.200Z,11.44
2017-10-10T00:55:45.777Z,11.51
2017-10-10T00:56:26.362Z,11.51
2017-10-10T00:57:06.957Z,11.51
2017-10-10T00:57:47.528Z,11.5
2017-10-10T00:58:28.100Z,11.51
2017-10-10T00:59:08.793Z,11.51
2017-10-10T00:59:49.380Z,11.51
2017-10-10T01:00:29.936Z,11.55
2017-10-10T01:01:10.520Z,11.5
2017-10-10T01:01:51.125Z,11.54
2017-10-10T01:02:31.747Z,11.52
2017-10-10T01:03:12.342Z,11.55
2017-10-10T01:03:52.949Z,11.43
2017-10-10T01:04:33.520Z,11.52
2017-10-10T01:05:14.106Z,11.54
2017-10-10T01:05:54.686Z,11.48
2017-10-10T01:06:35.286Z,11.48
2017-10-10T01:07:15.905Z,11.51
2017-10-10T01:07:56.508Z,11.51
2017-10-10T01:08:37.089Z,11.45
2017-10-10T01:09:17.760Z,11.48
2017-10-10T01:09:58.323Z,11.48
2017-10-10T01:10:38.916Z,11.55
2017-10-10T01:11:19.498Z,11.44
2017-10-10T01:12:00.114Z,11.51
2017-10-10T01:12:40.674Z,11.5
2017-10-10T01:13:21.294Z,11.48
2017-10-10T01:14:01.873Z,11.51
2017-10-10T01:14:42.475Z,11.57
2017-10-10T01:15:23.044Z,11.54
2017-10-10T01:16:03.615Z,11.5
2017-10-10T01:16:44.215Z,11.54
2017-10-10T01:17:24.842Z,11.54
2017-10-10T01:18:05.487Z,11.57
2017-10-10T01:18:46.031Z,11.52
2017-10-10T01:19:26.616Z,11.51
2017-10-10T01:20:07.206Z,11.62
2017-10-10T01:20:47.802Z,11.6
2017-10-10T01:21:28.425Z,11.57
2017-10-10T01:22:09.031Z,11.51
2017-10-10T01:22:49.637Z,11.55
2017-10-10T01:23:30.274Z,11.63
2017-10-10T01:24:10.858Z,11.55
2017-10-10T01:24:51.468Z,11.6
2017-10-10T01:25:32.034Z,11.51
2017-10-10T01:26:12.685Z,11.65
2017-10-10T01:26:53.277Z,11.65
2017-10-10T01:27:33.850Z,11.57
2017-10-10T01:28:14.497Z,11.57
2017-10-10T01:28:55.090Z,11.54
2017-10-10T01:29:35.748Z,11.6
2017-10-10T01:30:16.317Z,11.59
2017-10-10T01:30:56.950Z,11.6
2017-10-10T01:31:37.530Z,11.59
2017-10-10T01:32:18.146Z,11.51
2017-10-10T01:32:58.734Z,11.63
2017-10-10T01:33:39.310Z,11.62
2017-10-10T01:34:19.908Z,11.62
2017-10-10T01:35:00.508Z,11.62
2017-10-10T01:35:41.108Z,11.62
2017-10-10T01:36:21.702Z,11.65
2017-10-10T01:37:02.336Z,11.54
2017-10-10T01:37:42.976Z,11.59
2017-10-10T01:38:23.600Z,11.59
2017-10-10T01:39:04.173Z,11.6
2017-10-10T01:39:44.764Z,11.57
2017-10-10T01:40:25.365Z,11.57
2017-10-10T01:41:05.955Z,11.63
2017-10-10T01:41:46.540Z,11.57
2017-10-10T01:42:27.172Z,11.57
2017-10-10T01:43:07.783Z,11.65
2017-10-10T01:43:48.359Z,11.57
2017-10-10T01:44:28.935Z,11.68
2017-10-10T01:45:09.524Z,11.66
2017-10-10T01:45:50.117Z,11.66
2017-10-10T01:46:30.720Z,11.7
2017-10-10T01:47:11.277Z,11.69
2017-10-10T01:47:51.866Z,11.69
2017-10-10T01:48:32.488Z,11.75
2017-10-10T01:49:13.076Z,11.7
2017-10-10T01:49:53.688Z,11.68
2017-10-10T01:50:34.292Z,11.68
2017-10-10T01:51:14.888Z,11.69
2017-10-10T01:51:55.478Z,11.68
2017-10-10T01:52:36.119Z,11.69
2017-10-10T01:53:16.698Z,11.66
2017-10-10T01:53:57.337Z,11.66
2017-10-10T01:54:37.913Z,11.72
2017-10-10T01:55:18.499Z,11.68
2017-10-10T01:55:59.101Z,11.65
2017-10-10T01:56:39.717Z,11.62
2017-10-10T01:57:20.288Z,11.65
2017-10-10T01:58:00.861Z,11.62
2017-10-10T01:58:41.470Z,11.57
2017-10-10T01:59:22.052Z,11.66
2017-10-10T02:00:02.704Z,11.68
2017-10-10T02:00:43.315Z,11.68
2017-10-10T02:01:23.920Z,11.69
2017-10-10T02:02:04.493Z,11.75
2017-10-10T02:02:45.081Z,11.72
2017-10-10T02:03:25.691Z,11.7
2017-10-10T02:04:06.358Z,11.72
2017-10-10T02:04:46.933Z,11.63
2017-10-10T02:05:27.545Z,11.75
2017-10-10T02:06:08.139Z,11.59
2017-10-10T02:06:48.723Z,11.65
2017-10-10T02:07:29.332Z,11.62
2017-10-10T02:08:09.930Z,11.65
2017-10-10T02:08:50.538Z,11.75
2017-10-10T02:09:31.133Z,11.7
2017-10-10T02:10:11.710Z,11.66
2017-10-10T02:10:52.301Z,11.68
2017-10-10T02:11:32.914Z,11.66
2017-10-10T02:12:13.475Z,11.66
2017-10-10T02:12:54.112Z,11.65
2017-10-10T02:13:34.685Z,11.65
2017-10-10T02:14:15.270Z,11.65
2017-10-10T02:14:55.849Z,11.78
2017-10-10T02:15:36.436Z,11.65
2017-10-10T02:16:17.028Z,11.73
2017-10-10T02:16:57.610Z,11.68
2017-10-10T02:17:38.223Z,11.7
2017-10-10T02:18:18.809Z,11.75
2017-10-10T02:18:59.420Z,11.77
2017-10-10T02:19:40.030Z,11.59
2017-10-10T02:20:20.623Z,11.62
2017-10-10T02:21:01.200Z,11.66
2017-10-10T02:21:41.783Z,11.69
2017-10-10T02:22:22.381Z,11.65
2017-10-10T02:23:02.980Z,11.65
2017-10-10T02:23:43.558Z,11.66
2017-10-10T02:24:24.144Z,11.68
2017-10-10T02:25:04.710Z,11.68
2017-10-10T02:25:45.327Z,11.7
2017-10-10T02:26:25.999Z,11.68
2017-10-10T02:27:06.605Z,11.6
2017-10-10T02:27:47.264Z,11.66
2017-10-10T02:28:27.835Z,11.55
2017-10-10T02:29:08.672Z,11.72
2017-10-10T02:29:49.633Z,11.69
2017-10-10T02:30:30.530Z,11.66
2017-10-10T02:31:11.495Z,11.72
2017-10-10T02:31:52.079Z,11.69
2017-10-10T02:32:32.792Z,11.59
2017-10-10T02:33:13.462Z,11.65
2017-10-10T02:33:54.065Z,11.65
2017-10-10T02:34:34.683Z,11.55
2017-10-10T02:35:15.370Z,11.59
2017-10-10T02:35:56.162Z,11.63
2017-10-10T02:36:36.812Z,11.66
2017-10-10T02:37:17.467Z,11.59
2017-10-10T02:37:58.064Z,11.65
2017-10-10T02:38:38.776Z,11.65
2017-10-10T02:39:19.367Z,11.6
2017-10-10T02:39:59.938Z,11.65
2017-10-10T02:40:40.524Z,11.59
2017-10-10T02:41:21.270Z,11.65
2017-10-10T02:42:01.837Z,11.65
2017-10-10T02:42:42.433Z,11.62
2017-10-10T02:43:23.109Z,11.62
2017-10-10T02:44:03.916Z,11.68
2017-10-10T02:44:44.529Z,11.65
2017-10-10T02:45:25.144Z,11.57
2017-10-10T02:46:05.728Z,11.66
2017-10-10T02:46:46.313Z,11.63
2017-10-10T02:47:26.886Z,11.57
2017-10-10T02:48:07.494Z,11.57
2017-10-10T02:48:48.069Z,11.6
2017-10-10T02:49:28.805Z,11.62
2017-10-10T02:50:09.398Z,11.6
2017-10-10T02:50:50.034Z,11.59
2017-10-10T02:51:30.643Z,11.57
2017-10-10T02:52:11.233Z,11.54
2017-10-10T02:52:51.869Z,11.55
2017-10-10T02:53:32.454Z,11.55
2017-10-10T02:54:13.040Z,11.59
2017-10-10T02:54:53.609Z,11.57
2017-10-10T02:55:34.176Z,11.65
2017-10-10T02:56:15.050Z,11.6
2017-10-10T02:56:55.696Z,11.59
2017-10-10T02:57:36.293Z,11.6
2017-10-10T02:58:16.868Z,11.54
2017-10-10T02:58:57.457Z,11.55
2017-10-10T02:59:38.094Z,11.57
2017-10-10T03:00:18.744Z,11.57
2017-10-10T03:00:59.512Z,11.54
2017-10-10T03:01:40.090Z,11.6
2017-10-10T03:02:20.704Z,11.6
2017-10-10T03:03:01.399Z,11.59
2017-10-10T03:03:42.035Z,11.63
2017-10-10T03:04:22.676Z,11.59
2017-10-10T03:05:03.250Z,11.6
2017-10-10T03:05:43.885Z,11.59
2017-10-10T03:06:24.467Z,11.62
2017-10-10T03:07:05.095Z,11.59
2017-10-10T03:07:45.763Z,11.62
2017-10-10T03:08:26.416Z,11.57
2017-10-10T03:09:07.033Z,11.66
2017-10-10T03:09:47.723Z,11.63
2017-10-10T03:10:28.374Z,11.57
2017-10-10T03:11:09.064Z,11.65
2017-10-10T03:11:49.642Z,11.63
2017-10-10T03:12:30.269Z,11.63
2017-10-10T03:13:10.946Z,11.52
2017-10-10T03:13:51.530Z,11.65
2017-10-10T03:14:32.311Z,11.65
2017-10-10T03:15:12.763Z,11.68
2017-10-10T03:15:53.366Z,11.7
2017-10-10T03:16:33.976Z,11.62
2017-10-10T03:17:14.563Z,11.69
2017-10-10T03:17:55.133Z,11.55
2017-10-10T03:18:36.495Z,11.66
2017-10-10T03:19:17.077Z,11.65
2017-10-10T03:19:57.804Z,11.63
2017-10-10T03:20:38.387Z,11.57
2017-10-10T03:21:19.011Z,11.57
2017-10-10T03:21:59.584Z,11.59
2017-10-10T03:22:40.209Z,11.57
2017-10-10T03:23:20.989Z,11.6
2017-10-10T03:24:01.772Z,11.57
2017-10-10T03:24:42.279Z,11.55
2017-10-10T03:25:22.984Z,11.57
2017-10-10T03:26:03.813Z,11.55
2017-10-10T03:26:44.737Z,11.55
2017-10-10T03:27:25.403Z,11.59
2017-10-10T03:28:05.977Z,11.59
2017-10-10T03:28:46.809Z,11.59
2017-10-10T03:29:27.455Z,11.65
2017-10-10T03:30:08.250Z,11.6
2017-10-10T03:30:48.963Z,11.57
2017-10-10T03:31:29.662Z,11.65
2017-10-10T03:32:10.257Z,11.63
2017-10-10T03:32:51.643Z,11.6
2017-10-10T03:33:32.254Z,11.65
2017-10-10T03:34:12.856Z,11.54
2017-10-10T03:34:53.434Z,11.57
2017-10-10T03:35:34.035Z,11.65
2017-10-10T03:36:14.760Z,11.54
2017-10-10T03:36:55.370Z,11.59
2017-10-10T03:37:36.154Z,11.6
2017-10-10T03:38:16.708Z,11.54
2017-10-10T03:38:57.386Z,11.66
2017-10-10T03:39:37.967Z,11.59
2017-10-10T03:40:18.567Z,11.63
2017-10-10T03:40:59.170Z,11.55
2017-10-10T03:41:40.036Z,11.68
2017-10-10T03:42:20.474Z,11.6
2017-10-10T03:43:01.064Z,11.54
2017-10-10T03:43:41.821Z,11.59
2017-10-10T03:44:22.490Z,11.65
2017-10-10T03:45:03.143Z,11.6
2017-10-10T03:45:43.758Z,11.66
2017-10-10T03:46:24.351Z,11.68
2017-10-10T03:47:04.972Z,11.59
2017-10-10T03:47:45.556Z,11.54
2017-10-10T03:48:26.210Z,11.66
2017-10-10T03:49:06.823Z,11.63
2017-10-10T03:49:47.415Z,11.6
2017-10-10T03:50:28.053Z,11.59
2017-10-10T03:51:08.642Z,11.55
2017-10-10T03:51:49.231Z,11.65
2017-10-10T03:52:29.806Z,11.59
2017-10-10T03:53:10.451Z,11.62
2017-10-10T03:53:51.028Z,11.65
2017-10-10T03:54:31.645Z,11.65
2017-10-10T03:55:12.232Z,11.65
2017-10-10T03:55:52.812Z,11.55
2017-10-10T03:56:33.402Z,11.57
2017-10-10T03:57:13.995Z,11.59
2017-10-10T03:57:54.570Z,11.6
2017-10-10T03:58:35.172Z,11.57
2017-10-10T03:59:15.761Z,11.57
2017-10-10T03:59:56.376Z,11.59
2017-10-10T04:00:36.953Z,11.57
2017-10-10T04:01:17.570Z,11.69
2017-10-10T04:01:58.180Z,11.6
2017-10-10T04:02:38.789Z,11.63
2017-10-10T04:03:19.362Z,11.65
2017-10-10T04:03:59.984Z,11.65
2017-10-10T04:04:40.570Z,11.59
2017-10-10T04:05:21.188Z,11.72
2017-10-10T04:06:01.784Z,11.68
2017-10-10T04:06:42.399Z,11.7
2017-10-10T04:07:22.979Z,11.62
2017-10-10T04:08:03.566Z,11.62
2017-10-10T04:08:44.140Z,11.69
2017-10-10T04:09:24.705Z,11.69
2017-10-10T04:10:05.359Z,11.68
2017-10-10T04:10:45.928Z,11.72
2017-10-10T04:11:26.524Z,11.62
2017-10-10T04:12:07.117Z,11.73
2017-10-10T04:12:47.720Z,11.66
2017-10-10T04:13:28.334Z,11.66
2017-10-10T04:14:08.914Z,11.7
2017-10-10T04:14:49.662Z,11.66
2017-10-10T04:15:30.341Z,11.63
2017-10-10T04:16:10.952Z,11.72
2017-10-10T04:16:51.714Z,11.62
2017-10-10T04:17:32.392Z,11.59
2017-10-10T04:18:12.969Z,11.62
2017-10-10T04:18:53.557Z,11.66
2017-10-10T04:19:34.151Z,11.72
2017-10-10T04:20:14.764Z,11.78
2017-10-10T04:20:55.919Z,11.63
2017-10-10T04:21:36.505Z,11.62
2017-10-10T04:22:17.572Z,11.62
2017-10-10T04:22:58.180Z,11.63
2017-10-10T04:23:38.804Z,11.75
2017-10-10T04:24:19.434Z,11.72
2017-10-10T04:25:00.020Z,11.65
2017-10-10T04:25:40.585Z,11.68
2017-10-10T04:26:21.158Z,11.63
2017-10-10T04:27:01.789Z,11.75
2017-10-10T04:27:42.346Z,11.68
2017-10-10T04:28:22.931Z,11.6
2017-10-10T04:29:03.549Z,11.65
2017-10-10T04:29:44.111Z,11.75
2017-10-10T04:30:24.692Z,11.7
2017-10-10T04:31:05.285Z,11.65
2017-10-10T04:31:45.902Z,11.68
2017-10-10T04:32:26.508Z,11.68
2017-10-10T04:33:07.095Z,11.69
2017-10-10T04:33:47.698Z,11.69
2017-10-10T04:34:28.342Z,11.7
2017-10-10T04:35:10.637Z,11.69
2017-10-10T04:35:51.224Z,11.68
2017-10-10T04:36:31.800Z,11.62
2017-10-10T04:37:12.415Z,11.62
2017-10-10T04:37:53.000Z,11.7
2017-10-10T04:38:33.623Z,11.72
2017-10-10T04:39:14.244Z,11.54
2017-10-10T04:39:54.859Z,11.69
2017-10-10T04:40:35.467Z,11.66
2017-10-10T04:41:16.171Z,11.66
2017-10-10T04:41:57.580Z,11.65
2017-10-10T04:42:38.211Z,11.63
2017-10-10T04:43:18.796Z,11.65
2017-10-10T04:43:59.421Z,11.68
2017-10-10T04:44:40.025Z,11.66
2017-10-10T04:45:20.704Z,11.7
2017-10-10T04:46:01.310Z,11.62
2017-10-10T04:46:41.897Z,11.7
2017-10-10T04:47:22.493Z,11.65
2017-10-10T04:48:03.136Z,11.63
2017-10-10T04:48:44.631Z,11.69
2017-10-10T04:49:25.230Z,11.77
2017-10-10T04:50:05.830Z,11.66
2017-10-10T04:50:46.496Z,11.68
2017-10-10T04:51:27.094Z,11.63
2017-10-10T04:52:07.692Z,11.75
2017-10-10T04:52:48.318Z,11.78
2017-10-10T04:53:28.900Z,11.91
2017-10-10T04:54:09.532Z,12.02
2017-10-10T04:54:50.128Z,12.2
2017-10-10T04:55:30.707Z,12.37
2017-10-10T04:56:11.307Z,12.46
2017-10-10T04:56:51.886Z,12.47
2017-10-10T04:57:32.605Z,12.61
2017-10-10T04:58:13.184Z,12.64
2017-10-10T04:58:53.742Z,12.72
2017-10-10T04:59:34.377Z,12.78
2017-10-10T05:00:14.954Z,12.8
2017-10-10T05:00:55.739Z,12.83
2017-10-10T05:01:36.350Z,12.95
2017-10-10T05:02:16.936Z,12.98
2017-10-10T05:02:57.548Z,13.05
2017-10-10T05:03:38.148Z,13.08
2017-10-10T05:04:18.740Z,13.16
2017-10-10T05:04:59.325Z,13.09
2017-10-10T05:05:39.896Z,13.22
2017-10-10T05:06:20.502Z,13.19
2017-10-10T05:07:01.090Z,13.23
2017-10-10T05:07:41.677Z,13.33
2017-10-10T05:08:22.251Z,13.33
2017-10-10T05:09:02.840Z,13.37
2017-10-10T05:09:43.399Z,13.42
2017-10-10T05:10:24.006Z,13.38
2017-10-10T05:11:04.600Z,13.35
2017-10-10T05:11:45.171Z,13.47
2017-10-10T05:12:25.742Z,13.38
2017-10-10T05:13:06.315Z,13.49
2017-10-10T05:13:46.926Z,13.57
2017-10-10T05:14:27.516Z,13.5
2017-10-10T05:15:08.117Z,13.47
2017-10-10T05:15:48.725Z,13.56
2017-10-10T05:16:29.326Z,13.54
2017-10-10T05:17:09.934Z,13.57
2017-10-10T05:17:50.525Z,13.65
2017-10-10T05:18:32.108Z,13.72
2017-10-10T05:19:12.676Z,13.75
2017-10-10T05:19:53.272Z,13.81
2017-10-10T05:20:33.851Z,13.79
2017-10-10T05:21:14.443Z,13.83
2017-10-10T05:21:55.070Z,13.9
2017-10-10T05:22:35.619Z,13.96
2017-10-10T05:23:16.540Z,13.92
2017-10-10T05:23:57.115Z,13.92
2017-10-10T05:24:37.702Z,13.87
2017-10-10T05:25:18.297Z,13.85
2017-10-10T05:25:58.928Z,13.92
2017-10-10T05:26:39.525Z,13.89
2017-10-10T05:27:20.111Z,13.9
2017-10-10T05:28:00.747Z,14.03
2017-10-10T05:28:41.323Z,13.9
2017-10-10T05:29:21.912Z,13.85
2017-10-10T05:30:02.487Z,13.86
2017-10-10T05:30:43.082Z,13.93
2017-10-10T05:31:23.674Z,14.05
2017-10-10T05:32:04.459Z,13.93
2017-10-10T05:32:45.057Z,14.04
2017-10-10T05:33:25.632Z,14
2017-10-10T05:34:06.233Z,14.05
2017-10-10T05:34:46.814Z,14.04
2017-10-10T05:35:27.369Z,14.14
2017-10-10T05:36:07.961Z,14.18
2017-10-10T05:36:48.551Z,14.18
2017-10-10T05:37:29.139Z,14.12
2017-10-10T05:38:09.720Z,14.03
2017-10-10T05:38:50.422Z,13.97
2017-10-10T05:39:30.997Z,13.92
2017-10-10T05:40:11.592Z,13.83
2017-10-10T05:40:52.206Z,13.59
2017-10-10T05:41:32.799Z,13.57
2017-10-10T05:42:13.417Z,13.5
2017-10-10T05:42:54.050Z,13.38
2017-10-10T05:43:34.622Z,13.41
2017-10-10T05:44:15.230Z,13.23
2017-10-10T05:44:55.844Z,13.13
2017-10-10T05:45:36.487Z,13.08
2017-10-10T05:46:17.065Z,13.03
2017-10-10T05:46:57.660Z,13.01
2017-10-10T05:47:38.271Z,12.9
2017-10-10T05:48:18.896Z,12.83
2017-10-10T05:48:59.474Z,12.83
2017-10-10T05:49:40.043Z,12.75
2017-10-10T05:50:20.653Z,12.82
2017-10-10T05:51:01.246Z,12.72
2017-10-10T05:51:41.891Z,12.72
2017-10-10T05:52:22.474Z,12.6
2017-10-10T05:53:03.063Z,12.61
2017-10-10T05:53:43.673Z,12.62
2017-10-10T05:54:24.265Z,12.55
2017-10-10T05:55:04.851Z,12.57
2017-10-10T05:55:45.455Z,12.47
2017-10-10T05:56:26.109Z,12.46
2017-10-10T05:57:06.701Z,12.45
2017-10-10T05:57:47.316Z,12.43
2017-10-10T05:58:27.970Z,12.43
2017-10-10T05:59:08.554Z,12.43
2017-10-10T05:59:49.139Z,12.37
2017-10-10T06:00:29.822Z,12.32
2017-10-10T06:01:10.418Z,12.27
2017-10-10T06:01:50.997Z,12.32
2017-10-10T06:02:31.592Z,12.32
2017-10-10T06:03:12.171Z,12.32
2017-10-10T06:03:52.744Z,12.22
2017-10-10T06:04:33.329Z,12.35
2017-10-10T06:05:13.993Z,12.18
2017-10-10T06:05:54.623Z,12.27
2017-10-10T06:06:35.452Z,12.22
2017-10-10T06:07:16.046Z,12.24
2017-10-10T06:07:56.631Z,12.17
2017-10-10T06:08:37.249Z,12.21
2017-10-10T06:09:17.909Z,12.21
2017-10-10T06:09:58.566Z,12.2
2017-10-10T06:10:39.221Z,12.17
2017-10-10T06:11:19.824Z,12.12
2017-10-10T06:12:00.419Z,12.15
2017-10-10T06:12:41.000Z,12.09
2017-10-10T06:13:21.635Z,12.15
2017-10-10T06:14:02.219Z,12.13
2017-10-10T06:14:42.840Z,12.1
2017-10-10T06:15:23.461Z,12.18
2017-10-10T06:16:04.064Z,12.13
2017-10-10T06:16:44.628Z,12.04
2017-10-10T06:17:25.261Z,12.03
2017-10-10T06:18:05.856Z,12.06
2017-10-10T06:18:46.438Z,11.94
2017-10-10T06:19:27.037Z,11.97
2017-10-10T06:20:07.728Z,12.02
2017-10-10T06:20:48.308Z,11.99
2017-10-10T06:21:28.876Z,12
2017-10-10T06:22:09.484Z,11.94
2017-10-10T06:22:50.121Z,11.94
2017-10-10T06:23:30.690Z,12.1
2017-10-10T06:24:11.325Z,12.06
2017-10-10T06:24:52.040Z,11.97
2017-10-10T06:25:32.551Z,12.04
2017-10-10T06:26:13.142Z,11.99
2017-10-10T06:26:53.719Z,12
2017-10-10T06:27:34.314Z,12.02
2017-10-10T06:28:14.904Z,12.02
2017-10-10T06:28:56.143Z,12.02
2017-10-10T06:29:36.749Z,11.9
2017-10-10T06:30:17.326Z,11.99
2017-10-10T06:30:57.904Z,12.07
2017-10-10T06:31:38.579Z,11.95
2017-10-10T06:32:19.157Z,11.94
2017-10-10T06:32:59.832Z,11.99
2017-10-10T06:33:40.393Z,11.9
2017-10-10T06:34:21.001Z,11.97
2017-10-10T06:35:01.586Z,11.94
2017-10-10T06:35:42.163Z,11.9
2017-10-10T06:36:22.817Z,12
2017-10-10T06:37:03.419Z,11.91
2017-10-10T06:37:44.029Z,11.95
2017-10-10T06:38:24.671Z,11.97
2017-10-10T06:39:05.248Z,11.94
2017-10-10T06:39:45.818Z,11.87
2017-10-10T06:40:26.420Z,11.94
2017-10-10T06:41:07.010Z,11.97
2017-10-10T06:41:47.651Z,11.99
2017-10-10T06:42:28.245Z,11.91
2017-10-10T06:43:08.857Z,11.97
2017-10-10T06:43:49.466Z,11.91
2017-10-10T06:44:30.073Z,11.88
2017-10-10T06:45:10.678Z,11.94
2017-10-10T06:45:51.261Z,11.94
2017-10-10T06:46:31.853Z,11.84
2017-10-10T06:47:12.429Z,11.88
2017-10-10T06:47:53.005Z,11.88
2017-10-10T06:48:33.608Z,11.91
2017-10-10T06:49:14.177Z,11.88
2017-10-10T06:49:54.761Z,11.88
2017-10-10T06:50:35.540Z,11.91
2017-10-10T06:51:16.136Z,11.87
2017-10-10T06:51:56.753Z,11.86
2017-10-10T06:52:37.371Z,11.84
2017-10-10T06:53:17.937Z,11.8
2017-10-10T06:53:58.554Z,11.9
2017-10-10T06:54:39.135Z,11.94
2017-10-10T06:55:19.719Z,11.83
2017-10-10T06:56:00.302Z,11.97
2017-10-10T06:56:40.883Z,11.81
2017-10-10T06:57:21.466Z,11.8
2017-10-10T06:58:02.067Z,11.81
2017-10-10T06:58:42.645Z,11.84
2017-10-10T06:59:23.237Z,11.91
2017-10-10T07:00:03.817Z,11.84
2017-10-10T07:00:44.414Z,11.91
2017-10-10T07:01:25.008Z,11.81
2017-10-10T07:02:05.573Z,11.91
2017-10-10T07:02:46.215Z,11.83
2017-10-10T07:03:26.838Z,11.8
2017-10-10T07:04:07.419Z,11.84
2017-10-10T07:04:47.993Z,11.84
2017-10-10T07:05:28.561Z,11.8
2017-10-10T07:06:09.150Z,11.86
2017-10-10T07:06:49.737Z,11.8
2017-10-10T07:07:30.337Z,11.83
2017-10-10T07:08:10.916Z,11.87
2017-10-10T07:08:51.531Z,11.97
2017-10-10T07:09:32.161Z,11.84
2017-10-10T07:10:12.723Z,11.8
2017-10-10T07:10:53.357Z,11.84
2017-10-10T07:11:33.965Z,11.87
2017-10-10T07:12:14.560Z,11.81
2017-10-10T07:12:55.141Z,11.81
2017-10-10T07:13:35.765Z,11.83
2017-10-10T07:14:16.358Z,11.86
2017-10-10T07:14:56.965Z,11.86
2017-10-10T07:15:37.561Z,11.97
2017-10-10T07:16:18.162Z,11.83
2017-10-10T07:16:58.739Z,11.8
2017-10-10T07:17:39.316Z,11.81
2017-10-10T07:18:19.906Z,11.86
2017-10-10T07:19:00.492Z,11.83
2017-10-10T07:19:41.130Z,11.78
2017-10-10T07:20:21.716Z,11.81
2017-10-10T07:21:02.368Z,11.8
2017-10-10T07:21:42.966Z,11.88
2017-10-10T07:22:23.579Z,11.9
2017-10-10T07:23:04.183Z,11.8
2017-10-10T07:23:44.763Z,11.78
2017-10-10T07:24:25.414Z,11.95
2017-10-10T07:25:06.042Z,11.83
2017-10-10T07:25:46.612Z,11.83
2017-10-10T07:26:27.172Z,11.8
2017-10-10T07:27:07.765Z,11.84
2017-10-10T07:27:48.352Z,11.8
2017-10-10T07:28:28.919Z,11.8
2017-10-10T07:29:09.513Z,11.81
2017-10-10T07:29:50.109Z,11.83
2017-10-10T07:30:30.681Z,11.8
2017-10-10T07:31:11.277Z,11.87
2017-10-10T07:31:51.890Z,11.8
2017-10-10T07:32:32.432Z,11.91
2017-10-10T07:33:13.023Z,11.87
2017-10-10T07:33:53.807Z,11.94
2017-10-10T07:34:34.292Z,11.95
2017-10-10T07:35:14.885Z,11.91
2017-10-10T07:35:55.489Z,11.9
2017-10-10T07:36:36.224Z,11.88
2017-10-10T07:37:16.796Z,11.86
2017-10-10T07:37:57.407Z,11.97
2017-10-10T07:38:37.999Z,11.88
2017-10-10T07:39:18.596Z,11.91
2017-10-10T07:39:59.173Z,11.9
2017-10-10T07:40:39.749Z,11.91
2017-10-10T07:41:20.343Z,11.94
2017-10-10T07:42:00.917Z,11.94
2017-10-10T07:42:41.522Z,11.9
2017-10-10T07:43:22.110Z,12.06
2017-10-10T07:44:02.731Z,11.91
2017-10-10T07:44:43.367Z,12
2017-10-10T07:45:23.937Z,11.9
2017-10-10T07:46:04.542Z,11.94
2017-10-10T07:46:45.104Z,12
2017-10-10T07:47:25.680Z,11.95
2017-10-10T07:48:06.281Z,11.94
2017-10-10T07:48:46.884Z,11.91
2017-10-10T07:49:27.551Z,11.97
2017-10-10T07:50:08.147Z,11.88
2017-10-10T07:50:48.792Z,11.86
2017-10-10T07:51:29.314Z,11.88
2017-10-10T07:52:09.972Z,11.88
2017-10-10T07:52:50.812Z,11.8
2017-10-10T07:53:31.396Z,11.81
2017-10-10T07:54:12.086Z,11.83
2017-10-10T07:54:52.722Z,11.83
2017-10-10T07:55:33.296Z,11.77
2017-10-10T07:56:13.866Z,11.84
2017-10-10T07:56:54.432Z,11.81
2017-10-10T07:57:34.991Z,11.78
2017-10-10T07:58:15.562Z,11.86
2017-10-10T07:58:56.170Z,11.75
2017-10-10T07:59:36.733Z,11.72
2017-10-10T08:00:17.304Z,11.78
2017-10-10T08:00:57.910Z,11.81
2017-10-10T08:01:38.507Z,11.72
2017-10-10T08:02:19.137Z,11.73
2017-10-10T08:02:59.761Z,11.73
2017-10-10T08:03:40.386Z,11.78
2017-10-10T08:04:20.972Z,11.78
2017-10-10T08:05:01.549Z,11.78
2017-10-10T08:05:42.134Z,11.78
2017-10-10T08:06:22.759Z,11.77
2017-10-10T08:07:03.354Z,11.72
2017-10-10T08:07:44.096Z,11.77
2017-10-10T08:08:24.823Z,11.77
2017-10-10T08:09:05.451Z,11.8
2017-10-10T08:09:46.351Z,11.81
2017-10-10T08:10:27.339Z,11.8
2017-10-10T08:11:07.778Z,11.81
2017-10-10T08:11:48.698Z,11.8
2017-10-10T08:12:29.232Z,11.84
2017-10-10T08:13:09.804Z,11.83
2017-10-10T08:13:50.379Z,11.81
2017-10-10T08:14:30.950Z,11.8
2017-10-10T08:15:11.622Z,11.81
2017-10-10T08:15:52.307Z,11.83
2017-10-10T08:16:33.049Z,11.84
2017-10-10T08:17:13.899Z,11.88
2017-10-10T08:17:54.430Z,11.87
2017-10-10T08:18:35.220Z,11.97
2017-10-10T08:19:15.762Z,11.9
2017-10-10T08:19:56.289Z,11.91
2017-10-10T08:20:36.894Z,11.86
2017-10-10T08:21:17.487Z,11.87
2017-10-10T08:21:58.092Z,11.84
2017-10-10T08:22:38.699Z,11.84
2017-10-10T08:23:19.310Z,11.86
2017-10-10T08:23:59.914Z,11.88
2017-10-10T08:24:40.513Z,11.8
2017-10-10T08:25:21.139Z,11.94
2017-10-10T08:26:01.751Z,11.87
2017-10-10T08:26:42.354Z,11.88
2017-10-10T08:27:22.926Z,11.83
2017-10-10T08:28:03.521Z,11.78
2017-10-10T08:28:44.106Z,11.84
2017-10-10T08:29:27.413Z,11.81
2017-10-10T08:30:08.034Z,11.8
2017-10-10T08:30:48.657Z,11.9
2017-10-10T08:31:29.243Z,11.88
2017-10-10T08:32:09.889Z,11.86
2017-10-10T08:32:50.515Z,11.83
2017-10-10T08:33:31.115Z,11.77
2017-10-10T08:34:11.713Z,11.78
2017-10-10T08:34:52.296Z,11.84
2017-10-10T08:35:32.851Z,11.83
2017-10-10T08:36:13.416Z,11.81
2017-10-10T08:36:53.991Z,11.95
2017-10-10T08:37:34.576Z,11.88
2017-10-10T08:38:15.148Z,11.95
2017-10-10T08:38:55.790Z,11.95
2017-10-10T08:39:36.387Z,11.91
2017-10-10T08:40:16.988Z,11.91
2017-10-10T08:40:57.554Z,11.91
2017-10-10T08:41:38.140Z,11.95
2017-10-10T08:42:18.950Z,11.9
2017-10-10T08:42:59.911Z,11.95
2017-10-10T08:43:40.894Z,11.97
2017-10-10T08:44:21.784Z,11.94
2017-10-10T08:45:02.730Z,11.97
2017-10-10T08:45:43.749Z,11.87